createdAt,value
2023-04-29T00:02:01.581Z,1.25
2023-04-29T00:04:30.125Z,1.38
2023-04-29T00:06:58.450Z,1.40
2023-04-29T00:09:27.934Z,1.30
2023-04-29T00:11:56.175Z,1.55
2023-04-29T00:14:24.898Z,1.45
2023-04-29T00:16:54.122Z,1.63
2023-04-29T00:19:22.337Z,1.27
2023-04-29T00:21:50.680Z,1.50
2023-04-29T00:24:18.793Z,1.42
2023-04-29T00:26:48.688Z,1.77
2023-04-29T00:29:16.830Z,1.63
2023-04-29T00:31:45.010Z,1.58
2023-04-29T00:34:13.153Z,1.60
2023-04-29T00:36:41.932Z,1.60
2023-04-29T00:39:10.039Z,1.52
2023-04-29T00:41:39.066Z,1.75
2023-04-29T00:44:08.742Z,1.73
2023-04-29T00:46:37.271Z,1.83
2023-04-29T00:49:05.848Z,1.58
2023-04-29T00:51:34.326Z,1.60
2023-04-29T00:54:02.619Z,1.83
2023-04-29T00:56:36.547Z,1.65
2023-04-29T00:59:05.862Z,1.75
2023-04-29T01:01:35.855Z,1.88
2023-04-29T01:04:07.984Z,2.08
2023-04-29T01:06:57.391Z,2.10
2023-04-29T01:09:48.780Z,1.63
2023-04-29T01:12:27.410Z,2.30
2023-04-29T01:15:07.865Z,2.10
2023-04-29T01:17:45.607Z,2.50
2023-04-29T01:20:15.815Z,2.38
2023-04-29T01:22:44.078Z,2.38
2023-04-29T01:25:14.250Z,2.28
2023-04-29T01:28:15.604Z,2.75
2023-04-29T01:30:51.354Z,2.17
2023-04-29T01:33:33.675Z,2.10
2023-04-29T01:36:17.759Z,2.30
2023-04-29T01:38:54.522Z,2.70
2023-04-29T01:41:40.006Z,2.13
2023-04-29T01:44:25.484Z,2.72
2023-04-29T01:46:55.031Z,2.63
2023-04-29T01:49:28.975Z,2.80
2023-04-29T01:51:57.766Z,2.78
2023-04-29T01:54:26.508Z,2.60
2023-04-29T01:56:58.513Z,4.00
2023-04-29T01:59:43.684Z,3.35
2023-04-29T02:02:34.859Z,2.90
2023-04-29T02:05:13.061Z,2.53
2023-04-29T02:07:45.930Z,2.95
2023-04-29T02:10:14.192Z,2.55
2023-04-29T02:12:46.409Z,2.85
2023-04-29T02:15:15.050Z,3.40
2023-04-29T02:17:43.278Z,3.22
2023-04-29T02:20:12.585Z,2.97
2023-04-29T02:22:40.770Z,3.17
2023-04-29T02:25:09.894Z,3.67
2023-04-29T02:27:38.564Z,3.20
2023-04-29T02:30:10.351Z,2.88
2023-04-29T02:32:39.380Z,2.75
2023-04-29T02:35:08.737Z,2.83
2023-04-29T02:37:37.007Z,3.22
2023-04-29T02:40:06.727Z,3.10
2023-04-29T02:42:34.977Z,2.83
2023-04-29T02:45:03.941Z,2.72
2023-04-29T02:47:33.531Z,3.05
2023-04-29T02:50:01.715Z,3.20
2023-04-29T02:52:30.579Z,2.38
2023-04-29T02:54:58.834Z,2.70
2023-04-29T02:57:27.072Z,2.55
2023-04-29T02:59:55.249Z,2.88
2023-04-29T03:02:23.445Z,2.53
2023-04-29T03:04:56.814Z,2.78
2023-04-29T03:07:25.043Z,2.92
2023-04-29T03:09:54.679Z,3.10
2023-04-29T03:12:23.123Z,3.17
2023-04-29T03:14:51.956Z,3.17
2023-04-29T03:17:20.096Z,2.65
2023-04-29T03:19:48.277Z,2.50
2023-04-29T03:22:18.029Z,3.22
2023-04-29T03:24:46.547Z,2.65
2023-04-29T03:27:14.859Z,2.42
2023-04-29T03:29:43.062Z,2.92
2023-04-29T03:32:11.876Z,3.22
2023-04-29T03:34:40.149Z,2.72
2023-04-29T03:37:29.861Z,3.17
2023-04-29T03:40:11.945Z,3.72
2023-04-29T03:42:41.696Z,3.15
2023-04-29T03:45:13.109Z,2.92
2023-04-29T03:47:44.534Z,2.58
2023-04-29T03:50:12.901Z,3.15
2023-04-29T03:52:43.508Z,3.00
2023-04-29T03:55:15.455Z,2.85
2023-04-29T03:57:44.770Z,3.10
2023-04-29T04:00:15.368Z,2.65
2023-04-29T04:02:52.151Z,2.60
2023-04-29T04:05:21.019Z,2.67
2023-04-29T04:07:55.745Z,3.00
2023-04-29T04:10:35.879Z,2.20
2023-04-29T04:13:09.540Z,2.60
2023-04-29T04:15:37.753Z,1.83
2023-04-29T04:18:06.131Z,2.65
2023-04-29T04:20:34.543Z,3.10
2023-04-29T04:23:04.068Z,2.92
2023-04-29T04:25:32.378Z,2.47
2023-04-29T04:28:13.589Z,3.20
2023-04-29T04:30:55.635Z,3.00
2023-04-29T04:33:24.019Z,3.10
2023-04-29T04:35:52.175Z,3.35
2023-04-29T04:38:22.056Z,3.50
2023-04-29T04:40:50.296Z,3.60
2023-04-29T04:43:30.830Z,3.80
2023-04-29T04:45:59.490Z,3.33
2023-04-29T04:48:28.048Z,3.72
2023-04-29T04:50:56.340Z,3.45
2023-04-29T04:53:26.663Z,4.38
2023-04-29T04:56:02.423Z,3.90
2023-04-29T04:58:32.837Z,4.15
2023-04-29T05:01:01.238Z,4.72
2023-04-29T05:03:29.820Z,4.82
2023-04-29T05:06:00.062Z,4.47
2023-04-29T05:08:30.560Z,4.97
2023-04-29T05:11:01.081Z,4.75
2023-04-29T05:13:29.243Z,4.10
2023-04-29T05:15:57.538Z,5.30
2023-04-29T05:18:29.951Z,4.13
2023-04-29T05:20:58.262Z,4.13
2023-04-29T05:23:26.543Z,3.63
2023-04-29T05:25:56.361Z,2.88
2023-04-29T05:28:26.052Z,3.95
2023-04-29T05:30:56.262Z,4.93
2023-04-29T05:33:24.503Z,6.22
2023-04-29T05:35:52.593Z,7.70
2023-04-29T05:38:21.092Z,8.43
2023-04-29T05:40:57.705Z,9.10
2023-04-29T05:43:43.495Z,8.85
2023-04-29T05:46:14.722Z,9.50
2023-04-29T05:48:43.113Z,9.27
2023-04-29T05:51:14.350Z,9.23
2023-04-29T05:53:42.740Z,9.27
2023-04-29T05:56:12.486Z,8.73
2023-04-29T05:58:41.527Z,8.32
2023-04-29T06:01:09.748Z,8.00
2023-04-29T06:03:38.253Z,8.23
2023-04-29T06:06:25.652Z,7.68
2023-04-29T06:09:26.429Z,7.72
2023-04-29T06:11:58.880Z,7.50
2023-04-29T06:14:27.091Z,7.25
2023-04-29T06:16:55.973Z,7.57
2023-04-29T06:19:25.645Z,6.97
2023-04-29T06:21:54.334Z,6.47
2023-04-29T06:24:22.917Z,7.05
2023-04-29T06:26:51.376Z,7.13
2023-04-29T06:29:28.520Z,6.78
2023-04-29T06:31:57.107Z,7.03
2023-04-29T06:34:25.663Z,6.57
2023-04-29T06:37:19.631Z,6.85
2023-04-29T06:40:09.826Z,7.28
2023-04-29T06:42:53.416Z,6.57
2023-04-29T06:45:48.820Z,7.10
2023-04-29T06:48:28.149Z,6.75
2023-04-29T06:50:58.384Z,6.97
2023-04-29T06:53:26.704Z,7.20
2023-04-29T06:55:54.863Z,7.20
2023-04-29T06:58:23.058Z,6.90
2023-04-29T07:00:52.984Z,7.65
2023-04-29T07:03:23.720Z,6.93
2023-04-29T07:05:52.156Z,6.60
2023-04-29T07:08:20.281Z,7.00
2023-04-29T07:10:56.453Z,6.65
2023-04-29T07:13:25.374Z,7.35
2023-04-29T07:15:54.866Z,6.78
2023-04-29T07:18:23.280Z,6.63
2023-04-29T07:20:52.904Z,6.15
2023-04-29T07:23:21.149Z,6.43
2023-04-29T07:25:49.278Z,6.72
2023-04-29T07:28:17.727Z,6.03
2023-04-29T07:30:46.128Z,5.53
2023-04-29T07:33:16.061Z,5.78
2023-04-29T07:35:44.606Z,5.90
2023-04-29T07:38:12.903Z,5.78
2023-04-29T07:40:43.573Z,6.10
2023-04-29T07:43:11.703Z,5.57
2023-04-29T07:45:41.501Z,5.22
2023-04-29T07:48:09.862Z,5.93
2023-04-29T07:50:39.349Z,5.60
2023-04-29T07:53:07.711Z,5.95
2023-04-29T07:55:38.734Z,6.85
2023-04-29T07:58:07.265Z,6.63
2023-04-29T08:00:35.543Z,6.93
2023-04-29T08:03:03.890Z,6.53
2023-04-29T08:05:32.333Z,7.47
2023-04-29T08:08:01.954Z,6.40
2023-04-29T08:10:30.427Z,6.72
2023-04-29T08:12:59.031Z,6.75
2023-04-29T08:15:28.000Z,7.10
2023-04-29T08:17:56.169Z,6.63
2023-04-29T08:20:24.378Z,7.68
2023-04-29T08:22:53.359Z,6.28
2023-04-29T08:25:23.002Z,6.85
2023-04-29T08:27:51.133Z,7.03
2023-04-29T08:30:20.099Z,7.63
2023-04-29T08:32:48.651Z,7.13
2023-04-29T08:35:16.777Z,7.30
2023-04-29T08:37:44.871Z,7.43
2023-04-29T08:40:15.249Z,7.38
2023-04-29T08:42:48.838Z,7.03
2023-04-29T08:45:21.727Z,7.53
2023-04-29T08:47:51.428Z,7.05
2023-04-29T08:50:20.101Z,7.28
2023-04-29T08:52:48.289Z,7.57
2023-04-29T08:55:16.625Z,8.20
2023-04-29T08:57:50.470Z,7.70
2023-04-29T09:00:19.768Z,9.70
2023-04-29T09:02:52.477Z,9.73
2023-04-29T09:05:21.843Z,8.55
2023-04-29T09:07:52.490Z,8.65
2023-04-29T09:10:21.261Z,7.80
2023-04-29T09:12:51.399Z,7.82
2023-04-29T09:15:19.752Z,8.43
2023-04-29T09:17:49.703Z,6.78
2023-04-29T09:20:31.385Z,6.60
2023-04-29T09:23:03.609Z,5.70
2023-04-29T09:25:32.526Z,5.80
2023-04-29T09:28:17.445Z,5.90
2023-04-29T09:30:50.629Z,5.70
2023-04-29T09:33:18.788Z,5.00
2023-04-29T09:35:48.656Z,4.75
2023-04-29T09:38:18.378Z,4.80
2023-04-29T09:40:58.931Z,4.75
2023-04-29T09:43:29.480Z,4.70
2023-04-29T09:45:57.997Z,5.03
2023-04-29T09:48:35.394Z,5.10
2023-04-29T09:51:04.169Z,4.22
2023-04-29T09:53:33.393Z,4.57
2023-04-29T09:56:03.658Z,4.05
2023-04-29T09:58:38.153Z,4.53
2023-04-29T10:01:07.392Z,5.25
2023-04-29T10:03:38.650Z,3.78
2023-04-29T10:06:09.189Z,4.40
2023-04-29T10:08:37.773Z,4.68
2023-04-29T10:11:06.922Z,4.95
2023-04-29T10:13:38.891Z,5.07
2023-04-29T10:16:28.920Z,4.32
2023-04-29T10:19:03.616Z,4.13
2023-04-29T10:21:33.131Z,5.00
2023-04-29T10:24:04.552Z,5.10
2023-04-29T10:26:34.181Z,4.97
2023-04-29T10:29:06.067Z,4.72
2023-04-29T10:31:36.540Z,5.50
2023-04-29T10:34:04.739Z,5.85
2023-04-29T10:36:35.299Z,5.78
2023-04-29T10:39:06.585Z,6.20
2023-04-29T10:41:47.867Z,6.18
2023-04-29T10:44:17.575Z,5.60
2023-04-29T10:46:45.817Z,5.40
2023-04-29T10:49:14.072Z,5.80
2023-04-29T10:51:44.219Z,5.15
2023-04-29T10:54:15.838Z,5.63
2023-04-29T10:56:49.463Z,5.10
2023-04-29T10:59:23.403Z,4.63
2023-04-29T11:01:53.335Z,5.50
2023-04-29T11:04:23.610Z,5.15
2023-04-29T11:06:55.587Z,5.82
2023-04-29T11:09:28.413Z,5.30
2023-04-29T11:12:05.398Z,5.82
2023-04-29T11:14:37.953Z,5.10
2023-04-29T11:17:10.618Z,5.60
2023-04-29T11:19:44.957Z,5.50
2023-04-29T11:22:25.453Z,5.28
2023-04-29T11:24:57.528Z,5.78
2023-04-29T11:27:28.313Z,5.20
2023-04-29T11:29:59.424Z,5.80
2023-04-29T11:32:29.728Z,5.35
2023-04-29T11:35:10.216Z,6.80
2023-04-29T11:37:38.774Z,5.68
2023-04-29T11:40:09.066Z,6.50
2023-04-29T11:42:37.888Z,5.88
2023-04-29T11:45:09.099Z,5.75
2023-04-29T11:47:37.298Z,6.05
2023-04-29T11:50:07.798Z,6.28
2023-04-29T11:52:38.573Z,6.05
2023-04-29T11:55:10.367Z,5.85
2023-04-29T11:57:40.195Z,6.85
2023-04-29T12:00:13.857Z,6.82
2023-04-29T12:02:47.955Z,5.93
2023-04-29T12:05:17.547Z,5.90
2023-04-29T12:07:45.938Z,5.38
2023-04-29T12:10:14.286Z,5.60
2023-04-29T12:12:43.852Z,5.10
2023-04-29T12:15:14.737Z,5.63
2023-04-29T12:17:46.308Z,5.30
2023-04-29T12:20:15.380Z,5.20
2023-04-29T12:22:44.871Z,6.25
2023-04-29T12:25:13.169Z,4.93
2023-04-29T12:27:42.919Z,4.78
2023-04-29T12:30:13.350Z,4.38
2023-04-29T12:32:41.966Z,4.13
2023-04-29T12:35:17.756Z,4.25
2023-04-29T12:37:50.645Z,4.28
2023-04-29T12:40:20.303Z,4.88
2023-04-29T12:42:48.681Z,4.57
2023-04-29T12:45:32.260Z,4.72
2023-04-29T12:48:01.366Z,4.50
2023-04-29T12:50:34.728Z,4.05
2023-04-29T12:53:04.799Z,4.50
2023-04-29T12:55:35.335Z,4.20
2023-04-29T12:58:04.013Z,4.05
2023-04-29T13:00:35.043Z,3.65
2023-04-29T13:03:04.183Z,3.22
2023-04-29T13:05:32.503Z,4.00
2023-04-29T13:08:00.660Z,3.83
2023-04-29T13:10:29.485Z,3.38
2023-04-29T13:12:57.758Z,4.15
2023-04-29T13:15:25.978Z,3.50
2023-04-29T13:17:56.124Z,4.00
2023-04-29T13:20:24.423Z,4.32
2023-04-29T13:22:52.590Z,3.80
2023-04-29T13:25:21.040Z,3.25
2023-04-29T13:27:49.745Z,3.42
2023-04-29T13:30:17.970Z,3.33
2023-04-29T13:32:53.318Z,3.13
2023-04-29T13:35:24.966Z,3.28
2023-04-29T13:37:53.178Z,2.60
2023-04-29T13:40:21.722Z,2.58
2023-04-29T13:42:53.353Z,2.38
2023-04-29T13:45:29.133Z,3.00
2023-04-29T13:48:09.553Z,2.75
2023-04-29T14:03:22.125Z,2.67
2023-04-29T14:05:52.404Z,2.55
2023-04-29T14:08:20.615Z,2.63
2023-04-29T14:10:48.786Z,3.08
2023-04-29T14:13:17.729Z,3.22
2023-04-29T14:15:46.014Z,2.92
2023-04-29T14:18:14.228Z,3.00
2023-04-29T14:20:42.385Z,3.08
2023-04-29T14:23:11.829Z,2.80
2023-04-29T14:25:40.000Z,3.05
2023-04-29T14:28:08.608Z,3.28
2023-04-29T14:30:36.804Z,3.05
2023-04-29T14:33:05.390Z,2.70
2023-04-29T14:35:33.631Z,2.80
2023-04-29T14:38:01.809Z,2.92
2023-04-29T14:40:31.409Z,2.67
2023-04-29T14:42:59.529Z,2.67
2023-04-29T14:45:28.150Z,2.40
2023-04-29T14:47:56.357Z,2.65
2023-04-29T14:50:25.149Z,2.53
2023-04-29T14:52:53.291Z,2.58
2023-04-29T14:55:21.448Z,3.55
2023-04-29T14:57:51.024Z,2.60
2023-04-29T15:00:19.346Z,2.33
2023-04-29T15:02:47.573Z,2.05
2023-04-29T15:05:15.990Z,2.25
2023-04-29T15:07:44.340Z,2.50
2023-04-29T15:10:12.772Z,1.88
2023-04-29T15:12:40.924Z,2.28
2023-04-29T15:15:11.761Z,2.30
2023-04-29T15:17:40.695Z,10.05
2023-04-29T15:20:10.444Z,3.33
2023-04-29T15:22:38.644Z,2.95
2023-04-29T15:25:08.019Z,2.58
2023-04-29T15:27:38.788Z,3.92
2023-04-29T15:30:08.679Z,5.13
2023-04-29T15:32:38.816Z,3.90
2023-04-29T15:35:09.390Z,4.60
2023-04-29T15:37:37.527Z,3.55
2023-04-29T15:40:07.213Z,2.85
2023-04-29T15:42:35.289Z,2.50
2023-04-29T15:45:03.400Z,3.05
2023-04-29T15:47:31.554Z,3.88
2023-04-29T15:50:01.223Z,3.10
2023-04-29T15:52:29.500Z,6.97
2023-04-29T15:54:58.189Z,13.82
2023-04-29T15:57:26.725Z,21.77
2023-04-29T15:59:55.153Z,24.50
2023-04-29T16:02:23.588Z,33.53
2023-04-29T16:04:54.396Z,5.47
2023-04-29T16:07:23.887Z,4.22
2023-04-29T16:09:54.283Z,4.38
2023-04-29T16:12:22.545Z,3.38
2023-04-29T16:14:51.042Z,3.15
2023-04-29T16:17:19.346Z,3.65
2023-04-29T16:19:48.113Z,3.45
2023-04-29T16:22:16.224Z,3.88
2023-04-29T16:24:47.863Z,3.97
2023-04-29T16:27:18.804Z,4.70
2023-04-29T16:29:47.240Z,4.20
2023-04-29T16:32:15.308Z,3.50
2023-04-29T16:34:43.437Z,4.00
2023-04-29T16:37:12.569Z,11.18
2023-04-29T16:39:41.587Z,19.50
2023-04-29T16:42:11.243Z,21.77
2023-04-29T16:44:39.398Z,9.55
2023-04-29T16:47:07.608Z,16.40
2023-04-29T16:49:36.046Z,5.00
2023-04-29T16:52:05.420Z,3.70
2023-04-29T16:54:33.598Z,3.60
2023-04-29T16:57:02.219Z,3.05
2023-04-29T16:59:31.765Z,3.38
2023-04-29T17:02:02.694Z,3.67
2023-04-29T17:04:32.304Z,3.13
2023-04-29T17:07:01.384Z,3.53
2023-04-29T17:09:29.643Z,20.25
2023-04-29T17:11:58.032Z,7.70
2023-04-29T17:14:26.282Z,14.80
2023-04-29T17:16:55.921Z,15.68
2023-04-29T17:19:24.048Z,47.30
2023-04-29T17:21:52.153Z,22.10
2023-04-29T17:24:20.334Z,28.75
2023-04-29T17:26:48.485Z,53.25
2023-04-29T17:29:16.580Z,39.60
2023-04-29T17:31:54.383Z,37.03
2023-04-29T17:34:25.563Z,65.75
2023-04-29T17:36:54.703Z,52.05
2023-04-29T17:39:23.020Z,88.68
2023-04-29T17:41:51.156Z,42.17
2023-04-29T17:44:20.631Z,13.48
2023-04-29T17:46:50.894Z,69.32
2023-04-29T17:49:18.985Z,34.30
2023-04-29T17:51:48.481Z,33.38
2023-04-29T17:54:16.771Z,11.05
2023-04-29T17:56:45.273Z,17.40
2023-04-29T17:59:13.501Z,14.93
2023-04-29T18:01:42.830Z,11.43
2023-04-29T18:04:12.057Z,16.42
2023-04-29T18:06:40.410Z,43.13
2023-04-29T18:09:09.949Z,5.80
2023-04-29T18:11:38.077Z,5.45
2023-04-29T18:14:06.263Z,3.15
2023-04-29T18:16:34.651Z,28.00
2023-04-29T18:19:02.893Z,45.70
2023-04-29T18:21:31.821Z,18.73
2023-04-29T18:24:00.194Z,23.70
2023-04-29T18:26:29.788Z,2.70
2023-04-29T18:28:57.932Z,2.75
2023-04-29T18:31:26.492Z,2.10
2023-04-29T18:33:54.719Z,1.88
2023-04-29T18:36:23.689Z,2.17
2023-04-29T18:38:51.961Z,1.95
2023-04-29T18:41:20.145Z,2.42
2023-04-29T18:43:49.643Z,1.90
2023-04-29T18:46:17.951Z,2.28
2023-04-29T18:48:46.212Z,1.88
2023-04-29T18:51:14.379Z,2.85
2023-04-29T18:53:42.563Z,2.75
2023-04-29T18:56:10.736Z,2.38
2023-04-29T18:58:38.899Z,2.35
2023-04-29T19:01:08.471Z,2.45
2023-04-29T19:03:37.076Z,2.15
2023-04-29T19:06:05.497Z,2.10
2023-04-29T19:08:33.644Z,2.40
2023-04-29T19:11:01.847Z,3.00
2023-04-29T19:13:29.948Z,2.95
2023-04-29T19:15:58.470Z,3.22
2023-04-29T19:18:28.482Z,2.67
2023-04-29T19:20:57.014Z,2.80
2023-04-29T19:23:25.210Z,2.88
2023-04-29T19:25:53.388Z,2.78
2023-04-29T19:28:21.673Z,2.90
2023-04-29T19:30:49.917Z,3.28
2023-04-29T19:33:18.157Z,3.78
2023-04-29T19:35:47.696Z,2.95
2023-04-29T19:38:15.823Z,2.90
2023-04-29T19:40:44.166Z,2.95
2023-04-29T19:43:13.274Z,3.42
2023-04-29T19:45:41.641Z,3.25
2023-04-29T19:48:09.918Z,3.15
2023-04-29T19:50:38.040Z,4.75
2023-04-29T19:53:07.698Z,3.83
2023-04-29T19:55:35.918Z,3.80
2023-04-29T19:58:04.068Z,4.00
2023-04-29T20:00:32.403Z,3.67
2023-04-29T20:03:00.675Z,3.90
2023-04-29T20:05:31.484Z,3.55
2023-04-29T20:07:59.665Z,3.53
2023-04-29T20:10:30.554Z,3.90
2023-04-29T20:12:58.667Z,4.00
2023-04-29T20:15:27.131Z,3.75
2023-04-29T20:17:55.618Z,4.20
2023-04-29T20:20:24.281Z,4.13
2023-04-29T20:22:52.494Z,3.30
2023-04-29T20:25:21.817Z,3.63
2023-04-29T20:27:51.556Z,3.80
2023-04-29T20:30:19.657Z,4.57
2023-04-29T20:32:48.381Z,4.35
2023-04-29T20:35:17.647Z,4.32
2023-04-29T20:37:45.966Z,4.28
2023-04-29T20:40:14.483Z,4.47
2023-04-29T20:42:42.844Z,4.40
2023-04-29T20:45:13.333Z,3.83
2023-04-29T20:47:42.027Z,4.15
2023-04-29T20:50:14.333Z,4.45
2023-04-29T20:52:42.891Z,4.43
2023-04-29T20:55:11.110Z,4.20
2023-04-29T20:57:39.700Z,4.47
2023-04-29T21:00:09.668Z,4.63
2023-04-29T21:02:40.145Z,5.07
2023-04-29T21:05:10.146Z,4.88
2023-04-29T21:07:38.616Z,4.88
2023-04-29T21:10:07.827Z,4.30
2023-04-29T21:12:36.111Z,4.78
2023-04-29T21:15:04.709Z,4.63
2023-04-29T21:17:33.121Z,4.53
2023-04-29T21:20:02.773Z,4.90
2023-04-29T21:22:30.958Z,5.28
2023-04-29T21:24:59.076Z,4.82
2023-04-29T21:27:27.327Z,4.40
2023-04-29T21:29:55.575Z,5.53
2023-04-29T21:32:24.445Z,4.95
2023-04-29T21:34:52.946Z,5.30
2023-04-29T21:37:22.457Z,5.25
2023-04-29T21:39:50.904Z,5.43
2023-04-29T21:42:22.371Z,4.78
2023-04-29T21:44:50.659Z,5.25
2023-04-29T21:47:18.843Z,5.45
2023-04-29T21:49:47.088Z,5.22
2023-04-29T21:52:15.366Z,5.05
2023-04-29T21:54:44.975Z,5.18
2023-04-29T21:57:13.430Z,5.50
2023-04-29T21:59:41.529Z,5.32
2023-04-29T22:02:21.862Z,4.65
2023-04-29T22:04:51.726Z,5.45
2023-04-29T22:07:21.611Z,5.55
2023-04-29T22:09:54.197Z,5.47
2023-04-29T22:12:23.874Z,5.50
2023-04-29T22:14:52.084Z,5.28
2023-04-29T22:17:20.231Z,5.90
2023-04-29T22:19:48.775Z,5.38
2023-04-29T22:22:16.871Z,5.75
2023-04-29T22:24:44.975Z,4.93
2023-04-29T22:27:14.485Z,5.05
2023-04-29T22:29:43.123Z,5.15
2023-04-29T22:32:11.393Z,6.05
2023-04-29T22:34:39.922Z,4.97
2023-04-29T22:37:08.839Z,5.57
2023-04-29T22:39:37.798Z,5.57
2023-04-29T22:42:06.093Z,5.13
2023-04-29T22:44:36.190Z,4.68
2023-04-29T22:47:04.347Z,5.05
2023-04-29T22:49:32.475Z,5.07
2023-04-29T22:52:00.612Z,5.57
2023-04-29T22:54:30.148Z,4.93
2023-04-29T22:56:58.264Z,4.70
2023-04-29T22:59:26.415Z,5.03
2023-04-29T23:01:56.075Z,4.97
2023-04-29T23:04:24.704Z,5.70
2023-04-29T23:06:53.365Z,4.70
2023-04-29T23:09:21.577Z,5.28
2023-04-29T23:11:49.682Z,4.70
2023-04-29T23:14:17.947Z,5.30
2023-04-29T23:16:46.057Z,5.53
2023-04-29T23:19:15.523Z,5.13
2023-04-29T23:21:43.633Z,5.05
2023-04-29T23:24:11.878Z,5.45
2023-04-29T23:26:40.052Z,5.13
2023-04-29T23:29:08.155Z,5.80
2023-04-29T23:31:36.410Z,5.88
2023-04-29T23:34:04.639Z,5.05
2023-04-29T23:36:34.137Z,6.40
2023-04-29T23:39:02.282Z,5.68
2023-04-29T23:41:31.800Z,5.47
2023-04-29T23:44:01.592Z,5.35
2023-04-29T23:46:30.003Z,5.63
2023-04-29T23:48:58.255Z,5.35
2023-04-29T23:51:26.788Z,5.47
2023-04-29T23:53:56.347Z,5.50
2023-04-29T23:56:24.711Z,6.00
2023-04-29T23:58:52.777Z,5.43
